sensor_id;sensor_type;location;lat;lon;timestamp;P1;durP1;ratioP1;P2;durP2;ratioP2
13240;SDS011;6687;47.790;7.322;2022-10-16T06:12:43;0.43;;;0.40;;
13240;SDS011;6687;47.790;7.322;2022-10-16T06:15:09;0.52;;;0.52;;
13240;SDS011;6687;47.790;7.322;2022-10-16T06:17:36;0.40;;;0.40;;
13240;SDS011;6687;47.790;7.322;2022-10-16T06:20:03;0.22;;;0.22;;
13240;SDS011;6687;47.790;7.322;2022-10-16T06:22:30;0.80;;;0.80;;
13240;SDS011;6687;47.790;7.322;2022-10-16T06:24:57;0.32;;;0.32;;
13240;SDS011;6687;47.790;7.322;2022-10-16T06:27:24;0.22;;;0.22;;
13240;SDS011;6687;47.790;7.322;2022-10-16T06:29:52;0.50;;;0.50;;
13240;SDS011;6687;47.790;7.322;2022-10-16T06:32:19;0.50;;;0.50;;
13240;SDS011;6687;47.790;7.322;2022-10-16T06:34:46;0.80;;;0.75;;
13240;SDS011;6687;47.790;7.322;2022-10-16T06:37:13;0.28;;;0.28;;
13240;SDS011;6687;47.790;7.322;2022-10-16T06:39:40;0.40;;;0.40;;
13240;SDS011;6687;47.790;7.322;2022-10-16T06:42:06;1.02;;;0.30;;
13240;SDS011;6687;47.790;7.322;2022-10-16T06:44:33;0.52;;;0.52;;
13240;SDS011;6687;47.790;7.322;2022-10-16T06:47:01;0.32;;;0.30;;
13240;SDS011;6687;47.790;7.322;2022-10-16T06:49:28;2.60;;;0.60;;
13240;SDS011;6687;47.790;7.322;2022-10-16T06:51:55;0.28;;;0.28;;
13240;SDS011;6687;47.790;7.322;2022-10-16T06:54:22;0.68;;;0.65;;
13240;SDS011;6687;47.790;7.322;2022-10-16T06:56:48;0.40;;;0.40;;
13240;SDS011;6687;47.790;7.322;2022-10-16T06:59:19;0.70;;;0.70;;
13240;SDS011;6687;47.790;7.322;2022-10-16T07:01:46;1.50;;;1.30;;
13240;SDS011;6687;47.790;7.322;2022-10-16T07:04:14;0.60;;;0.40;;
13240;SDS011;6687;47.790;7.322;2022-10-16T07:06:41;0.30;;;0.30;;
13240;SDS011;6687;47.790;7.322;2022-10-16T07:09:09;0.40;;;0.40;;
13240;SDS011;6687;47.790;7.322;2022-10-16T07:11:37;0.75;;;0.50;;
13240;SDS011;6687;47.790;7.322;2022-10-16T07:14:08;0.75;;;0.50;;
13240;SDS011;6687;47.790;7.322;2022-10-16T07:16:41;0.68;;;0.68;;
13240;SDS011;6687;47.790;7.322;2022-10-16T07:19:07;0.30;;;0.30;;
13240;SDS011;6687;47.790;7.322;2022-10-16T07:21:38;0.60;;;0.60;;
13240;SDS011;6687;47.790;7.322;2022-10-16T07:24:05;0.70;;;0.70;;
13240;SDS011;6687;47.790;7.322;2022-10-16T07:26:34;0.38;;;0.35;;
13240;SDS011;6687;47.790;7.322;2022-10-16T07:29:02;0.43;;;0.43;;
13240;SDS011;6687;47.790;7.322;2022-10-16T07:31:29;0.68;;;0.50;;
13240;SDS011;6687;47.790;7.322;2022-10-16T07:33:57;0.60;;;0.60;;
13240;SDS011;6687;47.790;7.322;2022-10-16T07:36:24;0.30;;;0.30;;
13240;SDS011;6687;47.790;7.322;2022-10-16T07:38:53;0.20;;;0.20;;
13240;SDS011;6687;47.790;7.322;2022-10-16T07:41:19;0.35;;;0.35;;
13240;SDS011;6687;47.790;7.322;2022-10-16T07:43:46;0.30;;;0.30;;
13240;SDS011;6687;47.790;7.322;2022-10-16T07:46:14;0.77;;;0.43;;
13240;SDS011;6687;47.790;7.322;2022-10-16T07:48:41;0.60;;;0.60;;
13240;SDS011;6687;47.790;7.322;2022-10-16T07:51:11;0.50;;;0.50;;
13240;SDS011;6687;47.790;7.322;2022-10-16T07:53:38;0.60;;;0.60;;
13240;SDS011;6687;47.790;7.322;2022-10-16T07:56:06;0.30;;;0.30;;
13240;SDS011;6687;47.790;7.322;2022-10-16T07:58:33;0.32;;;0.32;;
13240;SDS011;6687;47.790;7.322;2022-10-16T08:01:02;0.28;;;0.22;;
13240;SDS011;6687;47.790;7.322;2022-10-16T08:03:30;0.68;;;0.43;;
13240;SDS011;6687;47.790;7.322;2022-10-16T08:05:57;0.55;;;0.55;;
13240;SDS011;6687;47.790;7.322;2022-10-16T08:08:24;0.40;;;0.40;;
13240;SDS011;6687;47.790;7.322;2022-10-16T08:10:51;0.38;;;0.32;;
13240;SDS011;6687;47.790;7.322;2022-10-16T08:13:19;0.50;;;0.50;;
13240;SDS011;6687;47.790;7.322;2022-10-16T08:15:46;0.28;;;0.28;;
13240;SDS011;6687;47.790;7.322;2022-10-16T08:18:14;1.85;;;0.60;;
13240;SDS011;6687;47.790;7.322;2022-10-16T08:20:41;1.23;;;0.70;;
13240;SDS011;6687;47.790;7.322;2022-10-16T08:23:09;1.10;;;0.88;;
13240;SDS011;6687;47.790;7.322;2022-10-16T08:25:37;0.60;;;0.60;;
13240;SDS011;6687;47.790;7.322;2022-10-16T08:28:04;1.67;;;1.20;;
13240;SDS011;6687;47.790;7.322;2022-10-16T08:30:33;2.15;;;1.38;;
13240;SDS011;6687;47.790;7.322;2022-10-16T08:33:00;1.23;;;0.82;;
13240;SDS011;6687;47.790;7.322;2022-10-16T08:35:27;5.97;;;1.50;;
13240;SDS011;6687;47.790;7.322;2022-10-16T08:37:54;0.63;;;0.60;;
13240;SDS011;6687;47.790;7.322;2022-10-16T08:40:22;0.90;;;0.50;;
13240;SDS011;6687;47.790;7.322;2022-10-16T08:43:00;0.50;;;0.50;;
13240;SDS011;6687;47.790;7.322;2022-10-16T08:45:44;0.43;;;0.43;;
13240;SDS011;6687;47.790;7.322;2022-10-16T08:48:22;0.63;;;0.63;;
13240;SDS011;6687;47.790;7.322;2022-10-16T08:50:55;0.50;;;0.50;;
13240;SDS011;6687;47.790;7.322;2022-10-16T08:53:23;0.60;;;0.60;;
13240;SDS011;6687;47.790;7.322;2022-10-16T08:55:54;0.35;;;0.30;;
13240;SDS011;6687;47.790;7.322;2022-10-16T08:58:21;0.55;;;0.55;;
13240;SDS011;6687;47.790;7.322;2022-10-16T09:00:54;0.80;;;0.80;;
13240;SDS011;6687;47.790;7.322;2022-10-16T09:03:32;0.60;;;0.50;;
13240;SDS011;6687;47.790;7.322;2022-10-16T09:06:07;0.80;;;0.80;;
13240;SDS011;6687;47.790;7.322;2022-10-16T09:08:46;0.90;;;0.70;;
13240;SDS011;6687;47.790;7.322;2022-10-16T09:11:23;0.95;;;0.80;;
13240;SDS011;6687;47.790;7.322;2022-10-16T09:13:58;0.50;;;0.50;;
13240;SDS011;6687;47.790;7.322;2022-10-16T09:16:34;0.65;;;0.50;;
13240;SDS011;6687;47.790;7.322;2022-10-16T09:19:09;0.65;;;0.60;;
13240;SDS011;6687;47.790;7.322;2022-10-16T09:21:41;0.80;;;0.63;;
13240;SDS011;6687;47.790;7.322;2022-10-16T09:24:11;0.40;;;0.40;;
13240;SDS011;6687;47.790;7.322;2022-10-16T09:26:40;0.82;;;0.73;;
13240;SDS011;6687;47.790;7.322;2022-10-16T09:29:08;1.27;;;0.52;;
13240;SDS011;6687;47.790;7.322;2022-10-16T09:31:39;0.30;;;0.30;;
13240;SDS011;6687;47.790;7.322;2022-10-16T09:34:06;0.88;;;0.52;;
13240;SDS011;6687;47.790;7.322;2022-10-16T09:36:47;0.40;;;0.40;;
13240;SDS011;6687;47.790;7.322;2022-10-16T09:39:15;0.52;;;0.50;;
13240;SDS011;6687;47.790;7.322;2022-10-16T09:41:42;0.63;;;0.63;;
13240;SDS011;6687;47.790;7.322;2022-10-16T09:44:17;0.52;;;0.52;;
13240;SDS011;6687;47.790;7.322;2022-10-16T09:46:49;0.70;;;0.70;;
13240;SDS011;6687;47.790;7.322;2022-10-16T09:49:26;1.10;;;0.77;;
13240;SDS011;6687;47.790;7.322;2022-10-16T09:52:02;1.42;;;0.70;;
13240;SDS011;6687;47.790;7.322;2022-10-16T09:54:29;0.82;;;0.82;;
13240;SDS011;6687;47.790;7.322;2022-10-16T09:57:03;1.05;;;0.95;;
13240;SDS011;6687;47.790;7.322;2022-10-16T09:59:31;0.73;;;0.70;;
13240;SDS011;6687;47.790;7.322;2022-10-16T10:02:00;1.63;;;0.85;;
13240;SDS011;6687;47.790;7.322;2022-10-16T10:04:37;1.02;;;0.90;;
13240;SDS011;6687;47.790;7.322;2022-10-16T10:07:06;1.20;;;1.10;;
13240;SDS011;6687;47.790;7.322;2022-10-16T10:09:44;1.77;;;1.23;;
13240;SDS011;6687;47.790;7.322;2022-10-16T10:12:17;1.02;;;1.02;;
13240;SDS011;6687;47.790;7.322;2022-10-16T10:14:46;1.50;;;1.40;;
13240;SDS011;6687;47.790;7.322;2022-10-16T10:17:17;2.25;;;1.40;;
13240;SDS011;6687;47.790;7.322;2022-10-16T10:19:46;0.80;;;0.80;;
13240;SDS011;6687;47.790;7.322;2022-10-16T10:22:19;1.30;;;1.20;;
13240;SDS011;6687;47.790;7.322;2022-10-16T10:24:56;2.50;;;1.40;;
13240;SDS011;6687;47.790;7.322;2022-10-16T10:27:30;1.40;;;1.20;;
13240;SDS011;6687;47.790;7.322;2022-10-16T10:30:06;2.55;;;1.23;;
13240;SDS011;6687;47.790;7.322;2022-10-16T10:32:43;2.40;;;1.27;;
13240;SDS011;6687;47.790;7.322;2022-10-16T10:35:18;2.10;;;1.92;;
13240;SDS011;6687;47.790;7.322;2022-10-16T10:37:58;2.28;;;1.48;;
13240;SDS011;6687;47.790;7.322;2022-10-16T10:40:38;1.83;;;1.73;;
13240;SDS011;6687;47.790;7.322;2022-10-16T10:43:14;1.70;;;1.13;;
13240;SDS011;6687;47.790;7.322;2022-10-16T10:45:52;1.20;;;1.10;;
13240;SDS011;6687;47.790;7.322;2022-10-16T10:48:29;1.23;;;1.13;;
13240;SDS011;6687;47.790;7.322;2022-10-16T10:51:15;1.85;;;0.95;;
13240;SDS011;6687;47.790;7.322;2022-10-16T10:53:47;1.40;;;0.60;;
13240;SDS011;6687;47.790;7.322;2022-10-16T10:56:23;0.65;;;0.65;;
13240;SDS011;6687;47.790;7.322;2022-10-16T11:01:54;0.65;;;0.63;;
13240;SDS011;6687;47.790;7.322;2022-10-16T11:04:33;0.70;;;0.70;;
13240;SDS011;6687;47.790;7.322;2022-10-16T11:07:21;2.00;;;0.55;;
13240;SDS011;6687;47.790;7.322;2022-10-16T11:09:55;0.68;;;0.68;;
13240;SDS011;6687;47.790;7.322;2022-10-16T11:12:29;0.55;;;0.55;;
13240;SDS011;6687;47.790;7.322;2022-10-16T11:15:00;0.82;;;0.65;;
13240;SDS011;6687;47.790;7.322;2022-10-16T11:17:31;0.85;;;0.70;;
13240;SDS011;6687;47.790;7.322;2022-10-16T11:20:13;0.77;;;0.77;;
13240;SDS011;6687;47.790;7.322;2022-10-16T11:22:44;0.98;;;0.40;;
13240;SDS011;6687;47.790;7.322;2022-10-16T11:25:18;0.50;;;0.50;;
13240;SDS011;6687;47.790;7.322;2022-10-16T11:27:49;0.60;;;0.40;;
13240;SDS011;6687;47.790;7.322;2022-10-16T11:30:21;1.20;;;1.10;;
13240;SDS011;6687;47.790;7.322;2022-10-16T11:32:53;0.85;;;0.80;;
13240;SDS011;6687;47.790;7.322;2022-10-16T11:35:32;0.70;;;0.70;;
13240;SDS011;6687;47.790;7.322;2022-10-16T11:38:07;0.60;;;0.60;;
13240;SDS011;6687;47.790;7.322;2022-10-16T11:40:41;0.93;;;0.80;;
13240;SDS011;6687;47.790;7.322;2022-10-16T11:43:14;0.57;;;0.52;;
13240;SDS011;6687;47.790;7.322;2022-10-16T11:45:46;1.45;;;0.57;;
13240;SDS011;6687;47.790;7.322;2022-10-16T11:48:18;0.50;;;0.50;;
13240;SDS011;6687;47.790;7.322;2022-10-16T11:50:54;0.65;;;0.60;;
13240;SDS011;6687;47.790;7.322;2022-10-16T11:53:34;2.42;;;0.93;;
13240;SDS011;6687;47.790;7.322;2022-10-16T11:56:11;0.70;;;0.70;;
13240;SDS011;6687;47.790;7.322;2022-10-16T11:58:41;0.88;;;0.88;;
13240;SDS011;6687;47.790;7.322;2022-10-16T12:01:18;0.68;;;0.60;;
13240;SDS011;6687;47.790;7.322;2022-10-16T12:03:56;1.00;;;0.90;;
13240;SDS011;6687;47.790;7.322;2022-10-16T12:06:33;0.75;;;0.73;;
13240;SDS011;6687;47.790;7.322;2022-10-16T12:09:03;0.88;;;0.70;;
13240;SDS011;6687;47.790;7.322;2022-10-16T12:11:31;1.02;;;0.70;;
13240;SDS011;6687;47.790;7.322;2022-10-16T12:14:05;0.75;;;0.75;;
13240;SDS011;6687;47.790;7.322;2022-10-16T12:16:33;1.38;;;0.77;;
13240;SDS011;6687;47.790;7.322;2022-10-16T12:19:11;0.80;;;0.80;;
13240;SDS011;6687;47.790;7.322;2022-10-16T12:21:40;0.60;;;0.50;;
13240;SDS011;6687;47.790;7.322;2022-10-16T12:24:19;0.70;;;0.65;;
13240;SDS011;6687;47.790;7.322;2022-10-16T12:26:48;1.25;;;1.10;;
13240;SDS011;6687;47.790;7.322;2022-10-16T12:29:21;0.70;;;0.70;;
13240;SDS011;6687;47.790;7.322;2022-10-16T12:31:54;0.98;;;0.90;;
13240;SDS011;6687;47.790;7.322;2022-10-16T12:34:22;0.70;;;0.70;;
13240;SDS011;6687;47.790;7.322;2022-10-16T12:36:54;0.65;;;0.65;;
13240;SDS011;6687;47.790;7.322;2022-10-16T12:39:22;0.45;;;0.43;;
13240;SDS011;6687;47.790;7.322;2022-10-16T12:42:00;1.15;;;0.47;;
13240;SDS011;6687;47.790;7.322;2022-10-16T12:44:31;1.65;;;0.40;;
13240;SDS011;6687;47.790;7.322;2022-10-16T12:47:00;1.02;;;0.68;;
13240;SDS011;6687;47.790;7.322;2022-10-16T12:49:30;0.38;;;0.38;;
13240;SDS011;6687;47.790;7.322;2022-10-16T12:52:00;0.47;;;0.47;;
13240;SDS011;6687;47.790;7.322;2022-10-16T12:54:27;0.70;;;0.60;;
13240;SDS011;6687;47.790;7.322;2022-10-16T12:57:03;0.40;;;0.40;;
13240;SDS011;6687;47.790;7.322;2022-10-16T12:59:40;0.88;;;0.50;;
13240;SDS011;6687;47.790;7.322;2022-10-16T13:02:36;0.82;;;0.70;;
13240;SDS011;6687;47.790;7.322;2022-10-16T13:08:05;0.55;;;0.55;;
13240;SDS011;6687;47.790;7.322;2022-10-16T13:10:47;0.43;;;0.43;;
13240;SDS011;6687;47.790;7.322;2022-10-16T13:13:31;1.27;;;0.57;;
13240;SDS011;6687;47.790;7.322;2022-10-16T13:16:09;0.30;;;0.30;;
13240;SDS011;6687;47.790;7.322;2022-10-16T13:18:46;0.40;;;0.40;;
13240;SDS011;6687;47.790;7.322;2022-10-16T13:21:29;0.32;;;0.32;;
13240;SDS011;6687;47.790;7.322;2022-10-16T13:24:09;0.20;;;0.20;;
13240;SDS011;6687;47.790;7.322;2022-10-16T13:26:48;0.28;;;0.20;;
13240;SDS011;6687;47.790;7.322;2022-10-16T13:29:21;0.88;;;0.50;;
13240;SDS011;6687;47.790;7.322;2022-10-16T13:31:48;0.50;;;0.30;;
13240;SDS011;6687;47.790;7.322;2022-10-16T13:34:16;0.30;;;0.30;;
13240;SDS011;6687;47.790;7.322;2022-10-16T13:36:45;0.73;;;0.73;;
13240;SDS011;6687;47.790;7.322;2022-10-16T13:39:21;0.35;;;0.35;;
13240;SDS011;6687;47.790;7.322;2022-10-16T13:41:57;0.90;;;0.35;;
13240;SDS011;6687;47.790;7.322;2022-10-16T13:44:27;0.50;;;0.50;;
13240;SDS011;6687;47.790;7.322;2022-10-16T13:47:02;0.40;;;0.40;;
13240;SDS011;6687;47.790;7.322;2022-10-16T13:49:29;0.95;;;0.45;;
13240;SDS011;6687;47.790;7.322;2022-10-16T13:51:56;0.60;;;0.60;;
13240;SDS011;6687;47.790;7.322;2022-10-16T13:54:26;0.70;;;0.70;;
13240;SDS011;6687;47.790;7.322;2022-10-16T13:56:55;0.90;;;0.70;;
13240;SDS011;6687;47.790;7.322;2022-10-16T13:59:22;0.47;;;0.47;;
13240;SDS011;6687;47.790;7.322;2022-10-16T14:01:50;0.40;;;0.40;;
13240;SDS011;6687;47.790;7.322;2022-10-16T14:04:20;0.25;;;0.25;;
13240;SDS011;6687;47.790;7.322;2022-10-16T14:06:48;0.38;;;0.25;;
13240;SDS011;6687;47.790;7.322;2022-10-16T14:09:20;1.10;;;0.50;;
13240;SDS011;6687;47.790;7.322;2022-10-16T14:11:51;0.60;;;0.50;;
13240;SDS011;6687;47.790;7.322;2022-10-16T14:14:21;0.55;;;0.30;;
13240;SDS011;6687;47.790;7.322;2022-10-16T14:16:48;0.80;;;0.50;;
13240;SDS011;6687;47.790;7.322;2022-10-16T14:19:18;0.30;;;0.30;;
13240;SDS011;6687;47.790;7.322;2022-10-16T14:21:48;0.40;;;0.30;;
13240;SDS011;6687;47.790;7.322;2022-10-16T14:24:22;0.50;;;0.50;;
13240;SDS011;6687;47.790;7.322;2022-10-16T14:26:54;0.40;;;0.40;;
13240;SDS011;6687;47.790;7.322;2022-10-16T14:29:21;0.63;;;0.40;;
13240;SDS011;6687;47.790;7.322;2022-10-16T14:31:55;0.77;;;0.52;;
13240;SDS011;6687;47.790;7.322;2022-10-16T14:34:27;0.38;;;0.38;;
13240;SDS011;6687;47.790;7.322;2022-10-16T14:36:55;0.93;;;0.40;;
13240;SDS011;6687;47.790;7.322;2022-10-16T14:39:23;0.30;;;0.30;;
13240;SDS011;6687;47.790;7.322;2022-10-16T14:41:55;0.30;;;0.30;;
13240;SDS011;6687;47.790;7.322;2022-10-16T14:44:26;0.50;;;0.30;;
13240;SDS011;6687;47.790;7.322;2022-10-16T14:46:55;1.08;;;0.40;;
13240;SDS011;6687;47.790;7.322;2022-10-16T14:49:24;0.50;;;0.50;;
13240;SDS011;6687;47.790;7.322;2022-10-16T14:51:53;0.95;;;0.50;;
13240;SDS011;6687;47.790;7.322;2022-10-16T14:54:20;0.63;;;0.52;;
13240;SDS011;6687;47.790;7.322;2022-10-16T14:56:47;0.93;;;0.50;;
13240;SDS011;6687;47.790;7.322;2022-10-16T14:59:18;0.50;;;0.50;;
13240;SDS011;6687;47.790;7.322;2022-10-16T15:01:49;2.05;;;0.50;;
13240;SDS011;6687;47.790;7.322;2022-10-16T15:04:16;0.30;;;0.30;;
13240;SDS011;6687;47.790;7.322;2022-10-16T15:06:43;0.40;;;0.40;;
13240;SDS011;6687;47.790;7.322;2022-10-16T15:09:10;0.65;;;0.52;;
13240;SDS011;6687;47.790;7.322;2022-10-16T15:11:37;0.85;;;0.40;;
13240;SDS011;6687;47.790;7.322;2022-10-16T15:14:04;0.50;;;0.50;;
13240;SDS011;6687;47.790;7.322;2022-10-16T15:16:33;0.38;;;0.38;;
13240;SDS011;6687;47.790;7.322;2022-10-16T15:19:00;0.43;;;0.43;;
13240;SDS011;6687;47.790;7.322;2022-10-16T15:21:27;0.70;;;0.70;;
13240;SDS011;6687;47.790;7.322;2022-10-16T15:23:55;0.63;;;0.50;;
13240;SDS011;6687;47.790;7.322;2022-10-16T15:26:23;0.45;;;0.45;;
13240;SDS011;6687;47.790;7.322;2022-10-16T15:28:50;0.52;;;0.50;;
13240;SDS011;6687;47.790;7.322;2022-10-16T15:31:17;0.40;;;0.40;;
13240;SDS011;6687;47.790;7.322;2022-10-16T15:33:45;0.47;;;0.40;;
13240;SDS011;6687;47.790;7.322;2022-10-16T15:36:24;0.50;;;0.40;;
13240;SDS011;6687;47.790;7.322;2022-10-16T15:38:52;0.45;;;0.45;;
13240;SDS011;6687;47.790;7.322;2022-10-16T15:41:18;0.40;;;0.40;;
13240;SDS011;6687;47.790;7.322;2022-10-16T15:43:47;0.40;;;0.40;;
13240;SDS011;6687;47.790;7.322;2022-10-16T15:46:17;0.40;;;0.40;;
13240;SDS011;6687;47.790;7.322;2022-10-16T15:48:46;1.50;;;0.60;;
13240;SDS011;6687;47.790;7.322;2022-10-16T15:51:13;0.50;;;0.50;;
13240;SDS011;6687;47.790;7.322;2022-10-16T15:53:40;0.52;;;0.50;;
13240;SDS011;6687;47.790;7.322;2022-10-16T15:56:07;0.50;;;0.50;;
13240;SDS011;6687;47.790;7.322;2022-10-16T15:58:35;0.80;;;0.80;;
13240;SDS011;6687;47.790;7.322;2022-10-16T16:01:02;1.05;;;0.50;;
13240;SDS011;6687;47.790;7.322;2022-10-16T16:03:30;0.40;;;0.40;;
13240;SDS011;6687;47.790;7.322;2022-10-16T16:06:03;0.38;;;0.35;;
13240;SDS011;6687;47.790;7.322;2022-10-16T16:08:30;0.50;;;0.50;;
13240;SDS011;6687;47.790;7.322;2022-10-16T16:10:58;0.85;;;0.50;;
13240;SDS011;6687;47.790;7.322;2022-10-16T16:13:26;0.45;;;0.40;;
13240;SDS011;6687;47.790;7.322;2022-10-16T16:15:52;0.43;;;0.43;;
13240;SDS011;6687;47.790;7.322;2022-10-16T16:18:19;0.30;;;0.30;;
13240;SDS011;6687;47.790;7.322;2022-10-16T16:20:47;0.50;;;0.50;;
13240;SDS011;6687;47.790;7.322;2022-10-16T16:23:15;0.50;;;0.50;;
13240;SDS011;6687;47.790;7.322;2022-10-16T16:25:42;0.60;;;0.60;;
13240;SDS011;6687;47.790;7.322;2022-10-16T16:28:09;0.82;;;0.60;;
13240;SDS011;6687;47.790;7.322;2022-10-16T16:30:39;0.60;;;0.60;;
13240;SDS011;6687;47.790;7.322;2022-10-16T16:33:06;0.38;;;0.38;;
13240;SDS011;6687;47.790;7.322;2022-10-16T16:35:32;0.73;;;0.60;;
13240;SDS011;6687;47.790;7.322;2022-10-16T16:37:59;0.40;;;0.40;;
13240;SDS011;6687;47.790;7.322;2022-10-16T16:40:27;0.75;;;0.50;;
13240;SDS011;6687;47.790;7.322;2022-10-16T16:42:54;1.75;;;0.57;;
13240;SDS011;6687;47.790;7.322;2022-10-16T16:45:21;0.60;;;0.60;;
13240;SDS011;6687;47.790;7.322;2022-10-16T16:47:48;0.60;;;0.57;;
13240;SDS011;6687;47.790;7.322;2022-10-16T16:50:15;0.55;;;0.55;;
13240;SDS011;6687;47.790;7.322;2022-10-16T16:52:41;0.30;;;0.30;;
13240;SDS011;6687;47.790;7.322;2022-10-16T16:55:08;0.57;;;0.43;;
13240;SDS011;6687;47.790;7.322;2022-10-16T16:57:36;0.50;;;0.50;;
13240;SDS011;6687;47.790;7.322;2022-10-16T17:00:03;0.40;;;0.40;;
13240;SDS011;6687;47.790;7.322;2022-10-16T17:02:31;0.80;;;0.50;;
13240;SDS011;6687;47.790;7.322;2022-10-16T17:04:58;0.50;;;0.32;;
13240;SDS011;6687;47.790;7.322;2022-10-16T17:07:24;0.80;;;0.80;;
13240;SDS011;6687;47.790;7.322;2022-10-16T17:09:52;1.30;;;0.60;;
13240;SDS011;6687;47.790;7.322;2022-10-16T17:12:19;0.57;;;0.57;;
13240;SDS011;6687;47.790;7.322;2022-10-16T17:14:47;1.83;;;1.10;;
13240;SDS011;6687;47.790;7.322;2022-10-16T17:17:13;0.65;;;0.65;;
13240;SDS011;6687;47.790;7.322;2022-10-16T17:19:40;0.57;;;0.57;;
13240;SDS011;6687;47.790;7.322;2022-10-16T17:22:07;0.60;;;0.60;;
13240;SDS011;6687;47.790;7.322;2022-10-16T17:24:33;0.95;;;0.93;;
13240;SDS011;6687;47.790;7.322;2022-10-16T17:27:00;1.05;;;0.80;;
13240;SDS011;6687;47.790;7.322;2022-10-16T17:29:27;0.60;;;0.60;;
13240;SDS011;6687;47.790;7.322;2022-10-16T17:31:56;2.83;;;1.52;;
13240;SDS011;6687;47.790;7.322;2022-10-16T17:34:23;1.30;;;1.10;;
13240;SDS011;6687;47.790;7.322;2022-10-16T17:36:50;3.80;;;1.25;;
13240;SDS011;6687;47.790;7.322;2022-10-16T17:39:17;1.40;;;1.17;;
13240;SDS011;6687;47.790;7.322;2022-10-16T17:41:44;2.03;;;1.38;;
13240;SDS011;6687;47.790;7.322;2022-10-16T17:44:12;1.48;;;0.95;;
13240;SDS011;6687;47.790;7.322;2022-10-16T17:46:44;1.40;;;1.13;;
13240;SDS011;6687;47.790;7.322;2022-10-16T17:49:13;2.70;;;1.35;;
13240;SDS011;6687;47.790;7.322;2022-10-16T17:51:40;1.38;;;1.13;;
13240;SDS011;6687;47.790;7.322;2022-10-16T17:54:08;3.28;;;1.40;;
13240;SDS011;6687;47.790;7.322;2022-10-16T17:56:35;1.13;;;1.02;;
13240;SDS011;6687;47.790;7.322;2022-10-16T17:59:02;2.13;;;1.17;;
13240;SDS011;6687;47.790;7.322;2022-10-16T18:01:30;1.33;;;1.20;;
13240;SDS011;6687;47.790;7.322;2022-10-16T18:03:59;1.38;;;1.20;;
13240;SDS011;6687;47.790;7.322;2022-10-16T18:06:30;2.50;;;1.30;;
13240;SDS011;6687;47.790;7.322;2022-10-16T18:08:57;1.77;;;1.20;;
13240;SDS011;6687;47.790;7.322;2022-10-16T18:11:25;1.40;;;1.30;;
13240;SDS011;6687;47.790;7.322;2022-10-16T18:13:53;2.22;;;1.10;;
13240;SDS011;6687;47.790;7.322;2022-10-16T18:16:21;2.40;;;1.50;;
13240;SDS011;6687;47.790;7.322;2022-10-16T18:18:49;1.77;;;0.93;;
13240;SDS011;6687;47.790;7.322;2022-10-16T18:21:17;1.23;;;1.13;;
13240;SDS011;6687;47.790;7.322;2022-10-16T18:23:46;2.00;;;0.90;;
13240;SDS011;6687;47.790;7.322;2022-10-16T18:26:14;1.10;;;1.00;;
13240;SDS011;6687;47.790;7.322;2022-10-16T18:28:41;1.40;;;1.30;;
13240;SDS011;6687;47.790;7.322;2022-10-16T18:31:10;1.27;;;1.00;;
13240;SDS011;6687;47.790;7.322;2022-10-16T18:33:38;1.13;;;1.02;;
13240;SDS011;6687;47.790;7.322;2022-10-16T18:36:06;2.83;;;1.38;;
13240;SDS011;6687;47.790;7.322;2022-10-16T18:38:34;1.65;;;1.55;;
13240;SDS011;6687;47.790;7.322;2022-10-16T18:41:04;1.42;;;1.33;;
13240;SDS011;6687;47.790;7.322;2022-10-16T18:43:31;1.25;;;1.15;;
13240;SDS011;6687;47.790;7.322;2022-10-16T18:45:58;1.55;;;1.27;;
13240;SDS011;6687;47.790;7.322;2022-10-16T18:48:26;1.20;;;1.10;;
13240;SDS011;6687;47.790;7.322;2022-10-16T18:50:54;1.30;;;1.20;;
13240;SDS011;6687;47.790;7.322;2022-10-16T18:53:32;0.93;;;0.93;;
13240;SDS011;6687;47.790;7.322;2022-10-16T18:55:59;2.05;;;1.10;;
13240;SDS011;6687;47.790;7.322;2022-10-16T18:58:27;1.27;;;1.17;;
13240;SDS011;6687;47.790;7.322;2022-10-16T19:00:54;1.52;;;1.20;;
13240;SDS011;6687;47.790;7.322;2022-10-16T19:03:21;3.28;;;1.10;;
13240;SDS011;6687;47.790;7.322;2022-10-16T19:05:47;1.73;;;1.10;;
13240;SDS011;6687;47.790;7.322;2022-10-16T19:08:14;1.55;;;1.23;;
13240;SDS011;6687;47.790;7.322;2022-10-16T19:10:41;3.42;;;0.98;;
13240;SDS011;6687;47.790;7.322;2022-10-16T19:13:08;2.15;;;1.10;;
13240;SDS011;6687;47.790;7.322;2022-10-16T19:15:40;2.78;;;0.73;;
13240;SDS011;6687;47.790;7.322;2022-10-16T19:18:08;1.27;;;1.17;;
13240;SDS011;6687;47.790;7.322;2022-10-16T19:20:35;0.80;;;0.75;;
13240;SDS011;6687;47.790;7.322;2022-10-16T19:23:02;2.03;;;0.93;;
13240;SDS011;6687;47.790;7.322;2022-10-16T19:25:28;2.38;;;0.88;;
13240;SDS011;6687;47.790;7.322;2022-10-16T19:27:55;1.05;;;0.95;;
13240;SDS011;6687;47.790;7.322;2022-10-16T19:30:30;0.93;;;0.93;;
13240;SDS011;6687;47.790;7.322;2022-10-16T19:32:58;1.02;;;0.93;;
13240;SDS011;6687;47.790;7.322;2022-10-16T19:35:24;2.25;;;0.98;;
13240;SDS011;6687;47.790;7.322;2022-10-16T19:37:51;1.08;;;1.00;;
13240;SDS011;6687;47.790;7.322;2022-10-16T19:40:18;1.25;;;0.90;;
13240;SDS011;6687;47.790;7.322;2022-10-16T19:42:45;1.83;;;0.90;;
13240;SDS011;6687;47.790;7.322;2022-10-16T19:45:14;0.90;;;0.90;;
13240;SDS011;6687;47.790;7.322;2022-10-16T19:47:41;2.20;;;1.30;;
13240;SDS011;6687;47.790;7.322;2022-10-16T19:50:10;1.02;;;1.00;;
13240;SDS011;6687;47.790;7.322;2022-10-16T19:52:37;1.23;;;0.85;;
13240;SDS011;6687;47.790;7.322;2022-10-16T19:55:04;1.33;;;1.02;;
13240;SDS011;6687;47.790;7.322;2022-10-16T19:57:32;1.17;;;0.90;;
13240;SDS011;6687;47.790;7.322;2022-10-16T20:00:00;0.73;;;0.73;;
13240;SDS011;6687;47.790;7.322;2022-10-16T20:02:27;0.80;;;0.60;;
13240;SDS011;6687;47.790;7.322;2022-10-16T20:04:53;0.98;;;0.90;;
13240;SDS011;6687;47.790;7.322;2022-10-16T20:07:22;0.82;;;0.82;;
13240;SDS011;6687;47.790;7.322;2022-10-16T20:09:48;1.77;;;0.70;;
13240;SDS011;6687;47.790;7.322;2022-10-16T20:12:15;1.08;;;0.88;;
13240;SDS011;6687;47.790;7.322;2022-10-16T20:14:42;0.98;;;0.90;;
13240;SDS011;6687;47.790;7.322;2022-10-16T20:17:10;1.13;;;1.00;;
13240;SDS011;6687;47.790;7.322;2022-10-16T20:19:36;0.82;;;0.82;;
13240;SDS011;6687;47.790;7.322;2022-10-16T20:22:04;1.05;;;0.95;;
13240;SDS011;6687;47.790;7.322;2022-10-16T20:24:32;2.25;;;0.88;;
13240;SDS011;6687;47.790;7.322;2022-10-16T20:26:59;0.65;;;0.55;;
13240;SDS011;6687;47.790;7.322;2022-10-16T20:29:26;0.73;;;0.70;;
13240;SDS011;6687;47.790;7.322;2022-10-16T20:31:53;1.02;;;0.82;;
13240;SDS011;6687;47.790;7.322;2022-10-16T20:34:19;1.17;;;1.02;;
13240;SDS011;6687;47.790;7.322;2022-10-16T20:36:46;0.75;;;0.75;;
13240;SDS011;6687;47.790;7.322;2022-10-16T20:39:14;0.90;;;0.90;;
13240;SDS011;6687;47.790;7.322;2022-10-16T20:41:43;0.65;;;0.65;;
13240;SDS011;6687;47.790;7.322;2022-10-16T20:44:10;1.27;;;1.02;;
13240;SDS011;6687;47.790;7.322;2022-10-16T20:46:37;1.73;;;0.73;;
13240;SDS011;6687;47.790;7.322;2022-10-16T20:49:05;2.63;;;1.83;;
13240;SDS011;6687;47.790;7.322;2022-10-16T20:51:33;2.42;;;2.17;;
13240;SDS011;6687;47.790;7.322;2022-10-16T20:54:00;2.47;;;1.45;;
13240;SDS011;6687;47.790;7.322;2022-10-16T20:56:29;3.50;;;2.15;;
13240;SDS011;6687;47.790;7.322;2022-10-16T20:58:59;2.58;;;1.95;;
13240;SDS011;6687;47.790;7.322;2022-10-16T21:01:27;2.17;;;1.13;;
13240;SDS011;6687;47.790;7.322;2022-10-16T21:03:55;1.92;;;1.10;;
13240;SDS011;6687;47.790;7.322;2022-10-16T21:06:23;1.55;;;1.27;;
13240;SDS011;6687;47.790;7.322;2022-10-16T21:08:51;2.22;;;1.17;;
13240;SDS011;6687;47.790;7.322;2022-10-16T21:11:19;1.50;;;1.13;;
13240;SDS011;6687;47.790;7.322;2022-10-16T21:13:47;1.35;;;0.95;;
13240;SDS011;6687;47.790;7.322;2022-10-16T21:16:17;1.10;;;0.68;;
13240;SDS011;6687;47.790;7.322;2022-10-16T21:18:44;1.15;;;0.73;;
13240;SDS011;6687;47.790;7.322;2022-10-16T21:21:17;1.25;;;1.15;;
13240;SDS011;6687;47.790;7.322;2022-10-16T21:23:45;0.77;;;0.75;;
13240;SDS011;6687;47.790;7.322;2022-10-16T21:26:12;1.15;;;1.00;;
13240;SDS011;6687;47.790;7.322;2022-10-16T21:28:39;1.17;;;1.00;;
13240;SDS011;6687;47.790;7.322;2022-10-16T21:31:09;2.50;;;1.10;;
13240;SDS011;6687;47.790;7.322;2022-10-16T21:33:38;0.65;;;0.65;;